Time;durP1;ratioP1;P1;durP2;ratioP2;P2;SDS_P1;SDS_P2;PMS_P1;PMS_P2;Temp;Humidity;BMP_temperature;BMP_pressure;BME280_temperature;BME280_humidity;BME280_pressure;Samples;Min_cycle;Max_cycle;Signal;HPM_P1;HPM_P2
2021/01/04 00:05:11;;;;;;;52.80;31.55;;;;;;;3.93;74.23;100887.84;4898360;29;20173;-67
2021/01/04 00:08:13;;;;;;;56.92;33.22;;;;;;;3.78;74.27;100887.78;4895122;29;20053;-65
2021/01/04 00:10:58;;;;;;;53.88;33.95;;;;;;;3.88;74.29;100887.84;4879897;29;20516;-66
2021/01/04 00:13:43;;;;;;;56.22;32.92;;;;;;;3.73;75.02;100888.56;4897717;29;20061;-67
2021/01/04 00:16:22;;;;;;;56.67;34.80;;;;;;;3.61;75.34;100890.69;4891653;29;20052;-70
2021/01/04 00:19:08;;;;;;;57.60;33.95;;;;;;;3.86;74.63;100885.38;4880832;29;20394;-70
2021/01/04 00:21:51;;;;;;;52.33;33.10;;;;;;;4.00;74.18;100874.81;4898419;29;20052;-68
2021/01/04 00:24:48;;;;;;;54.33;33.03;;;;;;;4.02;73.92;100880.81;4862596;29;20489;-70
2021/01/04 00:27:41;;;;;;;54.45;33.15;;;;;;;3.85;74.39;100882.94;4876334;29;20049;-67
2021/01/04 00:34:38;;;;;;;54.08;31.98;;;;;;;3.91;74.01;100874.50;4896466;29;20052;-69
2021/01/04 00:37:17;;;;;;;53.53;32.05;;;;;;;3.95;73.67;100875.63;4898184;29;20057;-66
2021/01/04 00:40:03;;;;;;;51.15;32.20;;;;;;;3.82;73.60;100875.28;4880060;29;20049;-65
2021/01/04 00:42:37;;;;;;;56.13;32.28;;;;;;;3.82;74.12;100878.81;4896840;29;20070;-65
2021/01/04 00:49:36;;;;;;;53.55;30.73;;;;;;;3.87;73.45;100878.03;4893824;29;20045;-69
2021/01/04 00:52:03;;;;;;;52.85;31.25;;;;;;;3.87;73.98;100857.03;4896169;29;20446;-69
2021/01/04 00:54:52;;;;;;;54.40;31.75;;;;;;;3.83;73.77;100866.03;4896571;29;20055;-69
2021/01/04 00:57:55;;;;;;;49.90;29.23;;;;;;;3.68;73.87;100868.69;4896995;29;20504;-68
2021/01/04 01:04:23;;;;;;;47.90;29.67;;;;;;;3.77;74.24;100870.63;4839562;29;20054;-69
2021/01/04 01:07:10;;;;;;;50.65;30.00;;;;;;;3.55;74.94;100878.13;4825091;29;20506;-68
2021/01/04 01:09:42;;;;;;;50.45;31.65;;;;;;;3.58;74.58;100868.59;4839993;29;20053;-69
2021/01/04 01:12:33;;;;;;;47.58;30.20;;;;;;;3.58;74.40;100858.53;4839884;29;20072;-68
2021/01/04 01:19:22;;;;;;;52.25;29.60;;;;;;;3.86;73.91;100860.03;4839858;29;20054;-68
2021/01/04 01:21:49;;;;;;;48.22;29.27;;;;;;;4.00;73.49;100855.72;4824781;29;20536;-69
2021/01/04 01:24:16;;;;;;;49.20;30.85;;;;;;;3.59;74.37;100859.38;4839860;29;20069;-66
2021/01/04 01:26:49;;;;;;;46.35;29.25;;;;;;;3.71;74.46;100863.53;4839708;29;20054;-69
2021/01/04 01:29:51;;;;;;;50.72;30.48;;;;;;;3.54;74.48;100860.13;4839425;29;20053;-69
2021/01/04 01:32:54;;;;;;;49.85;30.58;;;;;;;3.56;75.11;100863.41;4824586;29;20174;-70
2021/01/04 01:35:59;;;;;;;45.50;28.60;;;;;;;3.75;74.26;100861.88;4824209;29;20058;-68
2021/01/04 01:38:26;;;;;;;47.17;29.33;;;;;;;3.68;74.03;100864.03;4878620;29;20060;-70
2021/01/04 01:41:13;;;;;;;47.03;29.55;;;;;;;3.62;74.56;100870.56;4897139;29;20055;-70
2021/01/04 01:44:12;;;;;;;47.38;29.80;;;;;;;3.71;74.26;100868.16;4878548;29;20053;-70
2021/01/04 01:50:54;;;;;;;49.08;29.38;;;;;;;3.56;74.84;100860.69;4857517;29;20049;-67
2021/01/04 01:53:39;;;;;;;46.55;27.45;;;;;;;3.59;75.04;100862.91;4842334;29;20162;-69
2021/01/04 01:56:17;;;;;;;43.50;28.10;;;;;;;3.66;74.97;100859.94;4858234;29;20061;-65
2021/01/04 01:59:16;;;;;;;46.33;28.73;;;;;;;3.64;74.41;100860.22;4856941;29;20056;-65
2021/01/04 02:05:49;;;;;;;44.10;27.35;;;;;;;3.89;73.03;100860.31;4767194;30;20063;-66
2021/01/04 02:08:30;;;;;;;44.90;27.58;;;;;;;3.90;73.50;100859.25;4768048;30;20060;-70
2021/01/04 02:10:59;;;;;;;44.90;27.77;;;;;;;4.02;72.76;100861.75;4755414;30;20055;-66
2021/01/04 02:13:34;;;;;;;42.33;26.67;;;;;;;3.66;74.24;100876.28;4751573;30;20531;-67
2021/01/04 02:20:53;;;;;;;41.30;26.45;;;;;;;3.70;74.02;100861.03;4770225;30;20509;-69
2021/01/04 02:23:50;;;;;;;43.33;27.25;;;;;;;3.59;73.85;100865.66;4783620;29;20066;-68
2021/01/04 02:26:24;;;;;;;46.97;26.02;;;;;;;3.63;73.83;100860.50;4806087;29;20568;-68
2021/01/04 02:29:05;;;;;;;43.80;26.15;;;;;;;3.71;74.02;100859.97;4805418;29;20082;-68
2021/01/04 02:35:54;;;;;;;46.22;27.55;;;;;;;3.26;76.14;100865.97;4805730;29;20055;-67
2021/01/04 02:38:25;;;;;;;49.00;29.90;;;;;;;3.50;75.18;100856.31;4839429;29;20067;-67
2021/01/04 02:40:52;;;;;;;47.47;28.73;;;;;;;3.28;75.36;100866.50;4883475;29;20164;-67
2021/01/04 02:43:20;;;;;;;48.45;28.67;;;;;;;3.26;75.97;100866.78;4899377;29;20064;-70
2021/01/04 02:45:47;;;;;;;46.30;27.73;;;;;;;3.54;75.21;100862.88;4900015;29;20385;-69
2021/01/04 02:48:34;;;;;;;45.50;28.30;;;;;;;3.54;75.08;100853.91;4900082;29;20060;-68
2021/01/04 02:51:13;;;;;;;42.05;26.27;;;;;;;3.52;74.46;100861.50;4880070;29;20049;-69
2021/01/04 02:54:02;;;;;;;44.58;27.50;;;;;;;3.34;75.46;100863.59;4896405;29;20060;-69
2021/01/04 02:56:50;;;;;;;45.10;25.42;;;;;;;3.50;74.97;100850.88;4899254;29;20057;-70
2021/01/04 02:59:23;;;;;;;41.65;25.80;;;;;;;3.35;75.17;100859.75;4864425;29;20057;-70
2021/01/04 03:01:55;;;;;;;41.17;25.55;;;;;;;3.25;75.49;100864.31;4897860;29;20071;-70
2021/01/04 03:04:24;;;;;;;40.88;24.63;;;;;;;3.17;76.36;100862.09;4879673;29;20390;-69
2021/01/04 03:06:55;;;;;;;40.00;24.55;;;;;;;3.25;75.85;100862.44;4898818;29;20056;-68
2021/01/04 03:09:25;;;;;;;41.58;25.15;;;;;;;3.44;75.43;100844.56;4879337;29;20057;-69
2021/01/04 03:11:52;;;;;;;;;;;;;;;3.58;74.96;100846.81;4899584;29;20425;-70
2021/01/04 03:14:34;;;;;;;41.92;24.60;;;;;;;3.42;75.17;100851.34;4898075;29;20380;-69
2021/01/04 03:17:20;;;;;;;37.85;23.10;;;;;;;3.41;75.46;100850.56;4897861;29;20060;-70
2021/01/04 03:19:49;;;;;;;39.63;24.42;;;;;;;3.41;74.96;100849.72;4899654;29;20048;-66
2021/01/04 03:22:17;;;;;;;42.15;23.95;;;;;;;3.43;75.45;100845.66;4882503;29;20053;-66
2021/01/04 03:24:48;;;;;;;39.83;24.90;;;;;;;3.43;75.36;100839.41;4898793;29;20056;-66
2021/01/04 03:27:22;;;;;;;39.35;24.15;;;;;;;3.43;75.11;100836.69;4899771;29;20048;-67
2021/01/04 03:29:49;;;;;;;40.63;23.27;;;;;;;3.58;74.64;100844.91;4882157;29;20402;-69
2021/01/04 03:32:16;;;;;;;41.72;24.17;;;;;;;3.40;75.09;100838.00;4882382;29;20055;-68
2021/01/04 03:34:44;;;;;;;38.90;23.88;;;;;;;3.34;75.73;100838.25;4899399;29;20374;-65
2021/01/04 03:37:10;;;;;;;39.75;24.33;;;;;;;3.39;75.24;100835.56;4899871;29;20400;-69
2021/01/04 03:39:40;;;;;;;39.58;23.60;;;;;;;3.40;75.21;100835.28;4900005;29;20045;-67
2021/01/04 03:42:07;;;;;;;38.63;25.00;;;;;;;3.61;75.00;100833.50;4883216;29;20060;-71
2021/01/04 03:44:34;;;;;;;42.60;23.73;;;;;;;3.51;74.80;100825.28;4898536;29;20057;-70
2021/01/04 03:47:01;;;;;;;37.83;23.15;;;;;;;3.33;75.36;100828.44;4883078;29;20059;-68
2021/01/04 03:49:28;;;;;;;38.80;23.95;;;;;;;3.37;75.42;100827.66;4897964;29;20060;-69
2021/01/04 03:51:57;;;;;;;42.08;24.23;;;;;;;3.51;75.01;100824.44;4898980;29;20048;-68
2021/01/04 03:54:24;;;;;;;41.75;23.90;;;;;;;3.53;74.71;100823.13;4899023;29;20052;-68
2021/01/04 03:56:53;;;;;;;38.55;23.88;;;;;;;3.51;74.64;100822.56;4882098;29;20063;-67
2021/01/04 03:59:20;;;;;;;41.78;24.02;;;;;;;3.56;74.77;100819.84;4881869;29;20068;-69
2021/01/04 04:01:51;;;;;;;38.45;22.73;;;;;;;3.49;74.97;100813.03;4898352;29;20056;-68
2021/01/04 04:04:19;;;;;;;43.47;25.38;;;;;;;3.34;75.31;100820.03;4881661;29;20055;-68
2021/01/04 04:06:47;;;;;;;41.08;24.33;;;;;;;3.21;75.88;100809.59;4897928;29;20053;-69
2021/01/04 04:09:15;;;;;;;43.15;24.85;;;;;;;3.20;76.27;100824.28;4898692;29;20060;-66
2021/01/04 04:11:42;;;;;;;38.63;23.40;;;;;;;3.41;75.89;100817.06;4882039;29;20040;-68
2021/01/04 04:14:09;;;;;;;41.88;23.77;;;;;;;3.68;74.87;100816.94;4898359;29;20052;-69
2021/01/04 04:16:37;;;;;;;42.08;24.00;;;;;;;3.69;74.39;100807.66;4898653;29;20053;-69
2021/01/04 04:19:05;;;;;;;40.65;24.35;;;;;;;3.91;73.42;100816.47;4896889;29;20206;-69
2021/01/04 04:21:32;;;;;;;41.28;23.35;;;;;;;3.63;74.76;100811.47;4881523;29;20401;-68
2021/01/04 04:24:00;;;;;;;39.97;22.95;;;;;;;3.83;74.25;100814.25;4897313;29;20055;-70
2021/01/04 04:26:28;;;;;;;40.90;24.15;;;;;;;3.79;74.17;100819.41;4897944;29;20048;-70
2021/01/04 04:28:55;;;;;;;44.47;25.10;;;;;;;3.41;75.51;100817.06;4898109;29;20048;-68
2021/01/04 04:31:24;;;;;;;41.58;23.98;;;;;;;3.50;75.17;100814.66;4897837;29;20050;-69
2021/01/04 04:33:51;;;;;;;44.92;24.33;;;;;;;3.41;75.76;100814.34;4897277;29;20056;-70
2021/01/04 04:36:24;;;;;;;44.05;24.48;;;;;;;3.61;75.16;100800.81;4897731;29;20065;-68
2021/01/04 04:38:51;;;;;;;41.15;25.40;;;;;;;3.63;74.86;100811.47;4897268;29;20408;-66
2021/01/04 04:41:30;;;;;;;41.83;25.48;;;;;;;3.57;75.12;100812.50;4880974;29;20060;-66
2021/01/04 04:44:07;;;;;;;41.90;24.70;;;;;;;3.63;74.91;100809.53;4881061;29;20048;-64
2021/01/04 04:46:55;;;;;;;44.92;25.42;;;;;;;3.49;75.31;100799.41;4881452;29;20189;-67
2021/01/04 04:49:52;;;;;;;40.05;23.60;;;;;;;3.56;75.05;100806.22;4897672;29;20063;-69
2021/01/04 04:52:33;;;;;;;41.92;23.20;;;;;;;3.57;75.50;100798.91;4897223;29;20059;-70
2021/01/04 04:55:16;;;;;;;47.47;24.60;;;;;;;3.77;74.95;100796.25;4897628;29;20053;-68
2021/01/04 04:57:54;;;;;;;42.03;24.33;;;;;;;3.76;74.63;100797.34;4881219;29;20049;-69
2021/01/04 05:01:01;;;;;;;40.50;23.13;;;;;;;3.73;74.55;100803.34;4865276;29;20044;-70
2021/01/04 05:04:09;;;;;;;45.35;24.63;;;;;;;3.35;75.78;100802.59;4896311;29;20059;-69
2021/01/04 05:06:41;;;;;;;44.25;24.55;;;;;;;3.10;76.79;100807.88;4897629;29;20106;-66
2021/01/04 05:09:43;;;;;;;47.00;25.65;;;;;;;3.20;77.00;100798.97;4880540;29;20048;-68
2021/01/04 05:12:15;;;;;;;49.80;26.00;;;;;;;3.35;76.51;100799.03;4803461;29;20172;-69
2021/01/04 05:15:08;;;;;;;47.25;25.63;;;;;;;3.43;76.16;100793.13;4802173;29;20528;-68
2021/01/04 05:21:23;;;;;;;45.58;25.85;;;;;;;3.33;76.45;100795.75;4803195;29;20054;-68
2021/01/04 05:23:59;;;;;;;54.22;25.58;;;;;;;3.14;77.43;100806.28;4802581;29;20063;-68
2021/01/04 05:26:43;;;;;;;48.08;24.73;;;;;;;3.14;77.33;100800.84;4803118;29;20074;-69
2021/01/04 05:29:33;;;;;;;43.17;24.60;;;;;;;3.13;77.50;100811.97;4803374;29;20401;-66
2021/01/04 05:35:52;;;;;;;45.50;24.60;;;;;;;3.08;77.66;100799.19;4803478;29;20090;-69
2021/01/04 05:38:27;;;;;;;44.40;24.65;;;;;;;3.38;76.75;100793.09;4802806;29;20070;-63
2021/01/04 05:41:07;;;;;;;43.90;25.15;;;;;;;3.44;76.40;100801.03;4803180;29;20059;-66
2021/01/04 05:43:47;;;;;;;45.28;25.05;;;;;;;3.44;76.11;100801.03;4789855;29;20465;-67
2021/01/04 05:46:19;;;;;;;46.78;24.33;;;;;;;3.63;75.80;100795.91;4791942;29;20062;-67
2021/01/04 05:48:55;;;;;;;46.08;25.33;;;;;;;3.29;76.19;100794.66;4833285;29;20065;-70
2021/01/04 05:51:30;;;;;;;47.72;24.92;;;;;;;3.53;75.92;100792.34;4900608;29;20053;-69
2021/01/04 05:53:57;;;;;;;43.80;23.85;;;;;;;3.37;76.03;100788.72;4900977;29;20373;-66
2021/01/04 05:56:27;;;;;;;49.55;24.98;;;;;;;3.45;76.15;100796.41;4900498;29;20064;-66
2021/01/04 05:59:06;;;;;;;42.50;23.33;;;;;;;3.29;75.90;100791.94;4900853;29;20059;-66
2021/01/04 06:01:33;;;;;;;44.30;25.02;;;;;;;3.09;77.47;100799.97;4901040;29;20056;-65
2021/01/04 06:04:36;;;;;;;43.38;24.02;;;;;;;3.32;76.81;100791.41;4861786;29;20065;-64
2021/01/04 06:07:05;;;;;;;44.70;24.70;;;;;;;3.32;76.60;100799.56;4860964;29;20057;-69
2021/01/04 06:09:33;;;;;;;45.05;25.50;;;;;;;3.12;77.26;100794.81;4860432;29;20057;-69
2021/01/04 06:12:15;;;;;;;40.97;24.23;;;;;;;3.25;76.83;100799.00;4830455;29;20053;-71
2021/01/04 06:14:55;;;;;;;41.42;23.70;;;;;;;3.36;76.59;100796.06;4846049;29;20058;-66
2021/01/04 06:21:39;;;;;;;41.78;23.02;;;;;;;3.39;76.25;100805.59;4871659;29;20075;-70
2021/01/04 06:24:08;;;;;;;41.70;23.48;;;;;;;3.13;76.78;100811.97;4900509;29;20068;-65
2021/01/04 06:26:35;;;;;;;42.22;24.65;;;;;;;3.14;76.97;100811.72;4900642;29;20401;-66
2021/01/04 06:29:07;;;;;;;41.58;23.65;;;;;;;3.26;76.81;100811.53;4883635;29;20053;-67
2021/01/04 06:36:16;;;;;;;42.40;24.42;;;;;;;3.45;75.65;100808.09;4860911;29;20053;-66
2021/01/04 06:38:44;;;;;;;41.67;24.35;;;;;;;3.44;75.70;100809.19;4861154;29;20065;-66
2021/01/04 06:41:26;;;;;;;41.80;24.58;;;;;;;3.68;75.21;100803.31;4860363;29;20050;-67
2021/01/04 06:43:53;;;;;;;39.40;22.90;;;;;;;3.59;75.37;100796.72;4860223;29;20046;-66
2021/01/04 06:46:36;;;;;;;37.95;22.27;;;;;;;3.52;75.31;100801.59;4860154;29;20053;-68
2021/01/04 06:53:42;;;;;;;37.85;22.48;;;;;;;3.43;76.07;100798.56;4860024;29;20060;-65
2021/01/04 06:56:21;;;;;;;40.58;22.92;;;;;;;3.31;76.85;100804.19;4860244;29;20073;-64
2021/01/04 06:59:16;;;;;;;39.53;23.83;;;;;;;3.46;76.17;100806.19;4859949;29;20065;-64
2021/01/04 07:06:29;;;;;;;40.58;22.63;;;;;;;3.84;74.96;100805.00;4860818;29;20560;-66
2021/01/04 07:09:35;;;;;;;38.60;24.00;;;;;;;3.60;75.69;100811.97;4844937;29;20188;-65
2021/01/04 07:12:07;;;;;;;40.40;23.85;;;;;;;3.30;77.00;100807.19;4870363;29;20057;-68
2021/01/04 07:14:49;;;;;;;39.38;23.88;;;;;;;3.25;77.62;100807.16;4879779;29;20064;-66
2021/01/04 07:17:50;;;;;;;37.83;23.30;;;;;;;3.23;77.35;100810.16;4878891;29;20053;-65
2021/01/04 07:20:46;;;;;;;39.33;23.92;;;;;;;3.22;77.66;100813.97;4879315;29;20056;-66
2021/01/04 07:23:49;;;;;;;37.15;23.63;;;;;;;3.55;76.70;100812.78;4897524;29;20056;-67
2021/01/04 07:26:31;;;;;;;39.97;21.83;;;;;;;3.74;75.30;100815.84;4879627;29;20513;-67
2021/01/04 07:29:26;;;;;;;40.75;23.30;;;;;;;3.58;75.71;100809.53;4879224;29;20138;-63
2021/01/04 07:35:52;;;;;;;33.90;22.42;;;;;;;3.45;77.07;100816.25;4898931;29;20056;-60
2021/01/04 07:38:33;;;;;;;35.70;22.95;;;;;;;3.58;76.30;100825.03;4898093;29;20493;-64
2021/01/04 07:41:18;;;;;;;37.20;22.55;;;;;;;3.47;76.28;100823.34;4891680;29;20052;-65
2021/01/04 07:44:07;;;;;;;39.38;22.90;;;;;;;3.49;76.74;100822.00;4898439;29;20075;-63
2021/01/04 07:46:34;;;;;;;35.15;22.08;;;;;;;3.63;76.26;100817.72;4899154;29;20505;-65
2021/01/04 07:53:54;;;;;;;39.38;21.38;;;;;;;3.78;75.88;100816.97;4898595;29;20477;-65
2021/01/04 07:57:05;;;;;;;36.33;22.13;;;;;;;3.42;76.69;100827.69;4898864;29;20056;-66
2021/01/04 08:00:13;;;;;;;33.05;20.98;;;;;;;3.63;76.71;100827.81;4864125;29;20056;-66
2021/01/04 08:03:05;;;;;;;35.28;21.73;;;;;;;3.64;76.49;100824.81;4864575;29;20060;-62
2021/01/04 08:05:40;;;;;;;34.25;19.85;;;;;;;3.57;76.47;100824.22;4897852;29;20049;-65
2021/01/04 08:08:26;;;;;;;32.45;21.00;;;;;;;3.81;77.55;100828.16;4878752;29;20057;-69
2021/01/04 08:11:10;;;;;;;34.55;22.33;;;;;;;3.94;78.78;100835.03;4881768;29;20401;-67
2021/01/04 08:14:15;;;;;;;29.92;19.13;;;;;;;4.22;78.30;100821.72;4879148;29;20068;-68
2021/01/04 08:16:50;;;;;;;30.30;19.90;;;;;;;3.95;75.89;100823.03;4874633;29;20049;-66
2021/01/04 08:19:18;;;;;;;34.60;21.27;;;;;;;3.77;76.37;100827.03;4861905;29;20053;-66
2021/01/04 08:21:52;;;;;;;31.30;19.85;;;;;;;3.71;76.20;100830.00;4878267;29;20064;-68
2021/01/04 08:24:26;;;;;;;32.88;21.00;;;;;;;3.93;75.80;100828.75;4879608;29;20048;-68
2021/01/04 08:27:11;;;;;;;31.92;20.60;;;;;;;3.98;75.64;100830.66;4862757;29;20044;-65
2021/01/04 08:29:44;;;;;;;32.00;20.83;;;;;;;4.19;75.43;100835.91;4879033;29;20057;-67
2021/01/04 08:36:41;;;;;;;33.15;20.40;;;;;;;3.72;77.10;100827.00;4878221;29;20056;-66
2021/01/04 08:39:20;;;;;;;32.58;20.73;;;;;;;3.75;76.84;100820.22;4879147;29;20498;-66
2021/01/04 08:42:25;;;;;;;36.95;22.08;;;;;;;3.65;77.68;100820.16;4878649;29;20045;-64
2021/01/04 08:45:13;;;;;;;33.63;20.60;;;;;;;3.65;78.19;100823.72;4877150;29;20052;-68
2021/01/04 08:47:46;;;;;;;34.90;21.90;;;;;;;3.49;78.00;100826.63;4861976;29;20071;-69
2021/01/04 08:50:15;;;;;;;32.72;21.33;;;;;;;3.26;79.20;100830.59;4878995;29;20363;-68
2021/01/04 08:52:48;;;;;;;34.47;21.33;;;;;;;3.50;78.77;100820.09;4878378;29;20056;-69
2021/01/04 08:55:33;;;;;;;36.60;20.77;;;;;;;3.85;77.44;100829.25;4862299;29;20053;-68
2021/01/04 08:58:20;;;;;;;30.17;19.13;;;;;;;3.62;78.27;100826.97;4859478;29;20060;-68
2021/01/04 09:01:06;;;;;;;31.67;19.88;;;;;;;3.65;78.37;100831.88;4860272;29;20063;-68
2021/01/04 09:03:35;;;;;;;34.00;21.02;;;;;;;3.48;78.72;100833.97;4862489;29;20053;-65
2021/01/04 09:06:30;;;;;;;32.90;20.95;;;;;;;3.62;78.67;100820.69;4861719;29;20065;-66
2021/01/04 09:09:19;;;;;;;33.45;20.65;;;;;;;3.84;78.62;100827.59;4879229;29;20049;-69
2021/01/04 09:12:27;;;;;;;36.08;21.58;;;;;;;3.62;78.62;100835.16;4862320;29;20056;-67
2021/01/04 09:15:01;;;;;;;35.00;21.10;;;;;;;3.69;78.66;100829.44;4809524;29;20061;-63
2021/01/04 09:21:25;;;;;;;31.55;20.20;;;;;;;3.75;77.94;100821.03;4821382;29;20496;-66
2021/01/04 09:23:52;;;;;;;32.25;19.60;;;;;;;3.54;77.80;100835.63;4806600;29;20070;-65
2021/01/04 09:26:34;;;;;;;34.00;20.45;;;;;;;3.46;78.69;100827.97;4821594;29;20054;-67
2021/01/04 09:29:01;;;;;;;33.03;20.90;;;;;;;3.47;78.77;100829.59;4806441;29;20054;-64
2021/01/04 09:31:28;;;;;;;35.30;21.35;;;;;;;3.69;78.31;100826.72;4821711;29;20368;-68
2021/01/04 09:33:55;;;;;;;31.92;20.90;;;;;;;3.36;79.02;100844.25;4821083;29;20061;-63
2021/01/04 09:36:23;;;;;;;31.67;20.60;;;;;;;3.47;78.43;100835.03;4821051;29;20054;-66
2021/01/04 09:39:04;;;;;;;35.83;21.08;;;;;;;3.55;78.48;100840.00;4806391;29;20062;-68
2021/01/04 09:41:30;;;;;;;31.75;19.77;;;;;;;3.58;78.23;100835.91;4805454;29;20460;-66
2021/01/04 09:44:12;;;;;;;35.10;20.88;;;;;;;3.72;77.98;100835.19;4821325;29;20073;-65
2021/01/04 09:46:45;;;;;;;35.95;20.98;;;;;;;3.65;78.01;100831.88;4805795;29;20062;-69
2021/01/04 09:49:33;;;;;;;34.65;21.15;;;;;;;3.66;78.22;100832.72;4791008;29;20071;-65
2021/01/04 09:52:04;;;;;;;34.47;21.25;;;;;;;3.68;78.50;100827.81;4858889;29;20053;-68
2021/01/04 09:54:50;;;;;;;34.50;21.20;;;;;;;3.77;77.78;100826.22;4895413;29;20068;-66
2021/01/04 09:57:19;;;;;;;32.58;20.58;;;;;;;3.60;77.92;100828.31;4880211;29;20051;-66
2021/01/04 09:59:47;;;;;;;34.92;20.80;;;;;;;3.79;78.97;100829.50;4880256;29;20049;-65
2021/01/04 10:02:25;;;;;;;36.35;21.67;;;;;;;3.98;77.84;100828.75;4879440;29;20058;-68
2021/01/04 10:05:02;;;;;;;32.38;20.63;;;;;;;3.84;77.42;100826.78;4879064;29;20059;-62
2021/01/04 10:07:31;;;;;;;31.98;20.15;;;;;;;4.00;77.31;100829.31;4879838;29;20057;-65
2021/01/04 10:09:58;;;;;;;33.20;21.25;;;;;;;4.00;77.08;100834.75;4880465;29;20053;-64
2021/01/04 10:12:27;;;;;;;33.08;20.58;;;;;;;3.96;76.80;100838.28;4896375;29;20060;-63
2021/01/04 10:15:01;;;;;;;33.53;19.80;;;;;;;3.84;76.92;100829.50;4880017;29;20082;-67
2021/01/04 10:17:37;;;;;;;32.88;19.75;;;;;;;3.86;76.91;100833.63;4876568;29;20056;-68
2021/01/04 10:20:24;;;;;;;33.15;18.75;;;;;;;3.83;76.62;100825.97;4896645;29;20059;-67
2021/01/04 10:22:58;;;;;;;33.85;20.27;;;;;;;3.84;76.37;100827.59;4865571;29;20416;-68
2021/01/04 10:25:38;;;;;;;32.83;19.45;;;;;;;3.77;76.51;100824.31;4896534;29;20052;-69
2021/01/04 10:28:08;;;;;;;31.95;19.23;;;;;;;3.74;76.42;100829.47;4880144;29;20052;-68
2021/01/04 10:30:35;;;;;;;31.42;19.15;;;;;;;3.77;76.81;100818.88;4899009;29;20051;-67
2021/01/04 10:33:08;;;;;;;30.00;18.73;;;;;;;3.75;76.62;100815.56;4882865;29;20052;-66
2021/01/04 10:35:36;;;;;;;31.27;18.42;;;;;;;3.83;76.66;100823.25;4883012;29;20060;-68
2021/01/04 10:38:09;;;;;;;33.60;20.20;;;;;;;3.73;76.68;100811.50;4900159;29;20048;-67
2021/01/04 10:40:55;;;;;;;34.80;19.17;;;;;;;3.91;76.57;100811.84;4883510;29;20055;-68
2021/01/04 10:43:25;;;;;;;35.78;19.95;;;;;;;3.96;76.23;100809.13;4882447;29;20053;-64
2021/01/04 10:46:42;;;;;;;31.52;18.98;;;;;;;4.00;75.80;100809.41;4899938;29;20044;-67
2021/01/04 10:53:13;;;;;;;35.15;20.45;;;;;;;3.92;76.48;100812.66;4859978;29;20062;-68
2021/01/04 10:56:09;;;;;;;33.38;20.50;;;;;;;3.80;76.58;100818.31;4860288;29;20406;-65
2021/01/04 10:58:40;;;;;;;38.58;21.08;;;;;;;3.97;76.56;100807.22;4860083;29;20057;-68
2021/01/04 11:01:15;;;;;;;38.38;22.30;;;;;;;4.04;75.95;100803.16;4860178;29;20049;-67
2021/01/04 11:08:23;;;;;;;36.15;20.77;;;;;;;4.01;76.16;100809.13;4859334;29;20046;-66
2021/01/04 11:10:58;;;;;;;33.78;21.02;;;;;;;3.79;76.20;100808.53;4846295;29;20058;-64
2021/01/04 11:13:32;;;;;;;35.42;21.02;;;;;;;3.88;76.33;100806.09;4859936;29;20094;-65
2021/01/04 11:16:14;;;;;;;34.60;20.85;;;;;;;4.12;75.69;100797.19;4843936;29;20086;-65
2021/01/04 11:23:09;;;;;;;36.97;22.13;;;;;;;4.04;76.36;100794.16;4859961;29;20053;-62
2021/01/04 11:25:46;;;;;;;36.70;21.60;;;;;;;3.99;76.11;100797.69;4878703;29;20061;-65
2021/01/04 11:28:14;;;;;;;34.47;21.08;;;;;;;4.05;75.94;100798.53;4899030;29;20045;-68
2021/01/04 11:30:52;;;;;;;35.80;21.65;;;;;;;3.95;75.70;100802.06;4899067;29;20049;-69
2021/01/04 11:33:24;;;;;;;33.92;21.30;;;;;;;4.00;75.65;100799.34;4898661;29;20068;-67
2021/01/04 11:35:51;;;;;;;38.83;21.90;;;;;;;3.99;75.42;100792.22;4899432;29;20520;-68
2021/01/04 11:38:19;;;;;;;37.15;22.13;;;;;;;4.09;75.38;100794.19;4899039;29;20117;-67
2021/01/04 11:40:46;;;;;;;36.03;21.27;;;;;;;4.13;75.15;100784.38;4896928;29;20067;-68
2021/01/04 11:43:14;;;;;;;37.28;21.75;;;;;;;4.19;75.21;100778.66;4882685;29;20053;-66
2021/01/04 11:45:41;;;;;;;36.97;22.25;;;;;;;4.19;75.25;100786.84;4896294;29;20059;-68
2021/01/04 11:48:11;;;;;;;32.45;19.65;;;;;;;4.18;74.22;100778.94;4882236;29;20059;-67
2021/01/04 11:50:38;;;;;;;34.33;20.55;;;;;;;4.09;74.62;100783.28;4898511;29;20508;-66
2021/01/04 11:53:05;;;;;;;34.25;19.83;;;;;;;4.10;74.53;100763.94;4898684;29;20497;-66
2021/01/04 11:55:32;;;;;;;33.70;21.13;;;;;;;4.25;74.29;100771.31;4900341;29;20672;-69
2021/01/04 11:57:59;;;;;;;35.75;21.70;;;;;;;4.24;74.03;100772.38;4882117;29;20052;-64
2021/01/04 12:00:29;;;;;;;36.05;20.98;;;;;;;4.27;73.68;100759.03;4882734;29;20068;-67
2021/01/04 12:02:58;;;;;;;33.97;20.58;;;;;;;3.91;74.41;100767.41;4882594;29;20049;-66
2021/01/04 12:05:26;;;;;;;33.50;20.08;;;;;;;4.13;74.76;100765.31;4898513;29;20380;-64
2021/01/04 12:07:54;;;;;;;36.25;21.63;;;;;;;4.30;73.96;100765.88;4881620;29;20052;-65
2021/01/04 12:10:22;;;;;;;36.88;21.13;;;;;;;4.29;73.82;100770.50;4896739;29;20065;-67
2021/01/04 12:12:49;;;;;;;33.40;20.77;;;;;;;4.28;73.41;100771.59;4898821;29;20063;-68
2021/01/04 12:15:17;;;;;;;33.97;21.35;;;;;;;4.13;74.61;100759.84;4882063;29;20067;-66
2021/01/04 12:17:44;;;;;;;33.72;21.08;;;;;;;4.09;74.50;100759.56;4882134;29;20052;-66
2021/01/04 12:20:11;;;;;;;33.75;20.52;;;;;;;3.96;74.57;100759.25;4896915;29;20048;-65
2021/01/04 12:22:39;;;;;;;35.88;21.42;;;;;;;4.01;74.44;100764.75;4898316;29;20058;-68
2021/01/04 12:25:08;;;;;;;35.45;21.60;;;;;;;4.02;75.24;100760.91;4880832;29;20052;-66
2021/01/04 12:27:35;;;;;;;34.90;21.77;;;;;;;4.18;74.87;100755.22;4879719;29;20073;-66
2021/01/04 12:30:03;;;;;;;39.03;22.35;;;;;;;4.33;74.28;100762.59;4864951;29;20510;-66
2021/01/04 12:32:31;;;;;;;42.83;22.60;;;;;;;3.97;74.86;100761.72;4881266;29;20052;-64
2021/01/04 12:35:00;;;;;;;35.28;21.98;;;;;;;4.29;74.68;100754.13;4880757;29;20055;-66
2021/01/04 12:37:27;;;;;;;36.40;21.52;;;;;;;4.21;74.55;100753.84;4897294;29;20059;-63
2021/01/04 12:39:54;;;;;;;34.92;21.45;;;;;;;3.96;75.27;100757.34;4897884;29;20059;-66
2021/01/04 12:42:21;;;;;;;34.70;21.23;;;;;;;3.96;75.54;100751.06;4897504;29;20068;-65
2021/01/04 12:44:50;;;;;;;34.15;21.23;;;;;;;3.89;75.54;100743.16;4897656;29;20053;-67
2021/01/04 12:47:17;;;;;;;35.28;21.77;;;;;;;3.88;75.63;100748.88;4897680;29;20401;-65
2021/01/04 12:49:44;;;;;;;36.85;21.70;;;;;;;3.84;75.72;100739.59;4880645;29;20437;-68
2021/01/04 12:52:11;;;;;;;32.85;20.83;;;;;;;3.85;75.63;100741.25;4880722;29;20068;-66
2021/01/04 12:54:39;;;;;;;37.08;23.27;;;;;;;3.95;75.00;100747.56;4866096;29;20063;-67
2021/01/04 12:57:09;;;;;;;31.15;20.15;;;;;;;3.89;74.87;100739.63;4897131;29;20434;-65
2021/01/04 12:59:41;;;;;;;33.20;20.40;;;;;;;3.81;74.87;100740.97;4897465;29;20048;-68
2021/01/04 13:02:08;;;;;;;32.58;21.10;;;;;;;3.68;75.75;100738.75;4897770;29;20458;-68
2021/01/04 13:04:40;;;;;;;33.17;20.98;;;;;;;3.82;75.77;100739.06;4880161;29;20052;-67
2021/01/04 13:11:31;;;;;;;34.65;21.27;;;;;;;3.82;76.33;100730.91;4823773;29;20057;-67
2021/01/04 13:13:58;;;;;;;35.58;21.40;;;;;;;3.79;75.93;100734.97;4838495;29;20053;-68
2021/01/04 13:16:25;;;;;;;39.72;22.30;;;;;;;3.78;76.08;100735.25;4839999;29;20054;-67
2021/01/04 13:18:53;;;;;;;34.03;20.83;;;;;;;3.68;76.32;100733.28;4809281;29;20054;-65
2021/01/04 13:25:55;;;;;;;35.03;20.63;;;;;;;3.75;75.57;100719.44;4882813;29;20052;-67
2021/01/04 13:28:22;;;;;;;35.30;22.13;;;;;;;4.02;75.19;100718.13;4896392;29;20051;-67
2021/01/04 13:30:49;;;;;;;40.38;21.58;;;;;;;4.16;74.13;100724.69;4896544;29;20397;-65
2021/01/04 13:33:16;;;;;;;36.80;20.55;;;;;;;4.20;73.90;100724.97;4897453;29;20060;-66
2021/01/04 13:35:43;;;;;;;32.92;19.65;;;;;;;4.14;73.88;100721.41;4879970;29;20067;-65
2021/01/04 13:38:14;;;;;;;33.13;21.00;;;;;;;4.18;73.52;100711.63;4897418;29;20045;-67
2021/01/04 13:40:41;;;;;;;33.30;20.83;;;;;;;4.00;73.49;100716.75;4896681;29;20053;-67